Pecos, New Mexico
Current Conditions -  °F | °C
As of 8:53 AM on Sunday 21 Dec 2014 (Local Time) from KSAF Reporting Station
Clear Clear  
Wind Chill: 29°   Ceiling: Unl
Heat Index: 38°   Visibility: 10mi
Dew Point: 24°   Wind: 17mph
Humidity: 57%   Direction: 350°N
Pressure: 30"   Gusts: 24mph
Location:  35.57°N, 105.68°W
Report Text: KSAF 211553Z 35015G21KT 10SM CLR 03/M04 A3000 RMK AO2 SLP153 T00331044
Loading
Personal Weather Stations






























Interactive Weather Map New forecast layout! Learn more

10-Day Weather Forecast

Advertisements
Track Severe Weather on mobile